sensor_id;sensor_type;location;lat;lon;timestamp;temperature;humidity
39347;DHT22;26262;49.836;6.632;2023-05-29T00:02:21;13.40;99.90
39347;DHT22;26262;49.836;6.632;2023-05-29T00:04:47;13.50;99.90
39347;DHT22;26262;49.836;6.632;2023-05-29T00:07:12;13.20;99.90
39347;DHT22;26262;49.836;6.632;2023-05-29T00:09:38;13.30;99.90
39347;DHT22;26262;49.836;6.632;2023-05-29T00:12:03;13.30;99.90
39347;DHT22;26262;49.836;6.632;2023-05-29T00:14:31;13.10;99.90
39347;DHT22;26262;49.836;6.632;2023-05-29T00:16:56;13.10;99.90
39347;DHT22;26262;49.836;6.632;2023-05-29T00:19:22;13.10;99.90
39347;DHT22;26262;49.836;6.632;2023-05-29T00:21:50;13.10;99.90
39347;DHT22;26262;49.836;6.632;2023-05-29T00:24:16;13.00;99.90
39347;DHT22;26262;49.836;6.632;2023-05-29T00:26:42;13.00;99.90
39347;DHT22;26262;49.836;6.632;2023-05-29T00:29:08;13.10;99.90
39347;DHT22;26262;49.836;6.632;2023-05-29T00:31:33;13.10;99.90
39347;DHT22;26262;49.836;6.632;2023-05-29T00:34:00;13.10;99.90
39347;DHT22;26262;49.836;6.632;2023-05-29T00:36:26;13.00;99.90
39347;DHT22;26262;49.836;6.632;2023-05-29T00:38:52;12.70;99.90
39347;DHT22;26262;49.836;6.632;2023-05-29T00:41:17;12.10;99.90
39347;DHT22;26262;49.836;6.632;2023-05-29T00:43:43;12.30;99.90
39347;DHT22;26262;49.836;6.632;2023-05-29T00:46:09;12.30;99.90
39347;DHT22;26262;49.836;6.632;2023-05-29T00:48:36;12.40;99.90
39347;DHT22;26262;49.836;6.632;2023-05-29T00:51:02;12.40;99.90
39347;DHT22;26262;49.836;6.632;2023-05-29T00:53:28;12.40;99.90
39347;DHT22;26262;49.836;6.632;2023-05-29T00:55:53;12.50;99.90
39347;DHT22;26262;49.836;6.632;2023-05-29T00:58:20;12.60;99.90
39347;DHT22;26262;49.836;6.632;2023-05-29T01:00:46;12.70;99.90
39347;DHT22;26262;49.836;6.632;2023-05-29T01:03:12;12.40;99.90
39347;DHT22;26262;49.836;6.632;2023-05-29T01:05:40;12.30;99.90
39347;DHT22;26262;49.836;6.632;2023-05-29T01:08:06;12.40;99.90
39347;DHT22;26262;49.836;6.632;2023-05-29T01:10:32;12.30;99.90
39347;DHT22;26262;49.836;6.632;2023-05-29T01:13:18;12.40;99.90
39347;DHT22;26262;49.836;6.632;2023-05-29T01:16:05;12.20;99.90
39347;DHT22;26262;49.836;6.632;2023-05-29T01:21:38;12.30;99.90
39347;DHT22;26262;49.836;6.632;2023-05-29T01:24:26;12.20;99.90
39347;DHT22;26262;49.836;6.632;2023-05-29T01:27:00;12.10;99.90
39347;DHT22;26262;49.836;6.632;2023-05-29T01:29:34;11.90;99.90
39347;DHT22;26262;49.836;6.632;2023-05-29T01:32:00;12.10;99.90
39347;DHT22;26262;49.836;6.632;2023-05-29T01:34:27;12.20;99.90
39347;DHT22;26262;49.836;6.632;2023-05-29T01:36:53;12.10;99.90
39347;DHT22;26262;49.836;6.632;2023-05-29T01:39:19;12.20;99.90
39347;DHT22;26262;49.836;6.632;2023-05-29T01:41:45;12.30;99.90
39347;DHT22;26262;49.836;6.632;2023-05-29T01:44:12;11.90;99.90
39347;DHT22;26262;49.836;6.632;2023-05-29T01:46:39;11.90;99.90
39347;DHT22;26262;49.836;6.632;2023-05-29T01:49:06;11.90;99.90
39347;DHT22;26262;49.836;6.632;2023-05-29T01:51:31;12.00;99.90
39347;DHT22;26262;49.836;6.632;2023-05-29T01:53:57;12.10;99.90
39347;DHT22;26262;49.836;6.632;2023-05-29T01:56:25;12.10;99.90
39347;DHT22;26262;49.836;6.632;2023-05-29T01:58:53;12.00;99.90
39347;DHT22;26262;49.836;6.632;2023-05-29T02:01:20;11.80;99.90
39347;DHT22;26262;49.836;6.632;2023-05-29T02:03:46;11.90;99.90
39347;DHT22;26262;49.836;6.632;2023-05-29T02:06:12;11.90;99.90
39347;DHT22;26262;49.836;6.632;2023-05-29T02:08:37;11.50;99.90
39347;DHT22;26262;49.836;6.632;2023-05-29T02:11:03;11.20;99.90
39347;DHT22;26262;49.836;6.632;2023-05-29T02:13:28;11.30;99.90
39347;DHT22;26262;49.836;6.632;2023-05-29T02:15:54;11.40;99.90
39347;DHT22;26262;49.836;6.632;2023-05-29T02:18:20;11.50;99.90
39347;DHT22;26262;49.836;6.632;2023-05-29T02:20:46;11.60;99.90
39347;DHT22;26262;49.836;6.632;2023-05-29T02:23:12;11.40;99.90
39347;DHT22;26262;49.836;6.632;2023-05-29T02:25:38;11.50;99.90
39347;DHT22;26262;49.836;6.632;2023-05-29T02:28:04;11.50;99.90
39347;DHT22;26262;49.836;6.632;2023-05-29T02:30:29;11.20;99.90
39347;DHT22;26262;49.836;6.632;2023-05-29T02:32:55;11.30;99.90
39347;DHT22;26262;49.836;6.632;2023-05-29T02:35:21;11.40;99.90
39347;DHT22;26262;49.836;6.632;2023-05-29T02:37:49;11.20;99.90
39347;DHT22;26262;49.836;6.632;2023-05-29T02:40:14;11.30;99.90
39347;DHT22;26262;49.836;6.632;2023-05-29T02:42:40;11.40;99.90
39347;DHT22;26262;49.836;6.632;2023-05-29T02:45:06;11.40;99.90
39347;DHT22;26262;49.836;6.632;2023-05-29T02:47:32;11.50;99.90
39347;DHT22;26262;49.836;6.632;2023-05-29T02:49:57;11.50;99.90
39347;DHT22;26262;49.836;6.632;2023-05-29T02:52:23;11.30;99.90
39347;DHT22;26262;49.836;6.632;2023-05-29T02:54:49;11.10;99.90
39347;DHT22;26262;49.836;6.632;2023-05-29T02:57:14;10.90;99.90
39347;DHT22;26262;49.836;6.632;2023-05-29T02:59:40;11.10;99.90
39347;DHT22;26262;49.836;6.632;2023-05-29T03:02:06;11.20;99.90
39347;DHT22;26262;49.836;6.632;2023-05-29T03:04:32;10.90;99.90
39347;DHT22;26262;49.836;6.632;2023-05-29T03:06:57;10.90;99.90
39347;DHT22;26262;49.836;6.632;2023-05-29T03:09:23;10.90;99.90
39347;DHT22;26262;49.836;6.632;2023-05-29T03:11:48;10.90;99.90
39347;DHT22;26262;49.836;6.632;2023-05-29T03:14:16;11.00;99.90
39347;DHT22;26262;49.836;6.632;2023-05-29T03:16:43;10.90;99.90
39347;DHT22;26262;49.836;6.632;2023-05-29T03:19:09;10.80;99.90
39347;DHT22;26262;49.836;6.632;2023-05-29T03:21:35;10.80;99.90
39347;DHT22;26262;49.836;6.632;2023-05-29T03:24:01;10.50;99.90
39347;DHT22;26262;49.836;6.632;2023-05-29T03:26:28;10.70;99.90
39347;DHT22;26262;49.836;6.632;2023-05-29T03:28:54;10.80;99.90
39347;DHT22;26262;49.836;6.632;2023-05-29T03:31:19;10.90;99.90
39347;DHT22;26262;49.836;6.632;2023-05-29T03:33:45;10.50;99.90
39347;DHT22;26262;49.836;6.632;2023-05-29T03:36:11;10.60;99.90
39347;DHT22;26262;49.836;6.632;2023-05-29T03:38:36;10.70;99.90
39347;DHT22;26262;49.836;6.632;2023-05-29T03:41:02;10.80;99.90
39347;DHT22;26262;49.836;6.632;2023-05-29T03:43:28;10.60;99.90
39347;DHT22;26262;49.836;6.632;2023-05-29T03:45:53;10.50;99.90
39347;DHT22;26262;49.836;6.632;2023-05-29T03:48:19;10.70;99.90
39347;DHT22;26262;49.836;6.632;2023-05-29T03:50:46;10.80;99.90
39347;DHT22;26262;49.836;6.632;2023-05-29T03:53:12;10.90;99.90
39347;DHT22;26262;49.836;6.632;2023-05-29T03:55:37;10.80;99.90
39347;DHT22;26262;49.836;6.632;2023-05-29T03:58:03;10.80;99.90
39347;DHT22;26262;49.836;6.632;2023-05-29T04:00:28;10.80;99.90
39347;DHT22;26262;49.836;6.632;2023-05-29T04:02:55;10.60;99.90
39347;DHT22;26262;49.836;6.632;2023-05-29T04:05:21;10.10;99.90
39347;DHT22;26262;49.836;6.632;2023-05-29T04:07:47;10.00;99.90
39347;DHT22;26262;49.836;6.632;2023-05-29T04:10:12;10.10;99.90
39347;DHT22;26262;49.836;6.632;2023-05-29T04:12:38;10.30;99.90
39347;DHT22;26262;49.836;6.632;2023-05-29T04:15:04;10.40;99.90
39347;DHT22;26262;49.836;6.632;2023-05-29T04:17:30;10.20;99.90
39347;DHT22;26262;49.836;6.632;2023-05-29T04:19:55;10.30;99.90
39347;DHT22;26262;49.836;6.632;2023-05-29T04:22:21;10.30;99.90
39347;DHT22;26262;49.836;6.632;2023-05-29T04:24:47;10.30;99.90
39347;DHT22;26262;49.836;6.632;2023-05-29T04:27:12;10.40;99.90
39347;DHT22;26262;49.836;6.632;2023-05-29T04:29:40;10.60;99.90
39347;DHT22;26262;49.836;6.632;2023-05-29T04:32:07;10.20;99.90
39347;DHT22;26262;49.836;6.632;2023-05-29T04:34:35;10.10;99.90
39347;DHT22;26262;49.836;6.632;2023-05-29T04:37:02;10.20;99.90
39347;DHT22;26262;49.836;6.632;2023-05-29T04:39:28;10.20;99.90
39347;DHT22;26262;49.836;6.632;2023-05-29T04:41:54;10.10;99.90
39347;DHT22;26262;49.836;6.632;2023-05-29T04:44:21;10.30;99.90
39347;DHT22;26262;49.836;6.632;2023-05-29T04:46:47;10.40;99.90
39347;DHT22;26262;49.836;6.632;2023-05-29T04:49:13;10.40;99.90
39347;DHT22;26262;49.836;6.632;2023-05-29T04:51:39;10.40;99.90
39347;DHT22;26262;49.836;6.632;2023-05-29T04:54:09;10.50;99.90
39347;DHT22;26262;49.836;6.632;2023-05-29T04:56:35;10.60;99.90
39347;DHT22;26262;49.836;6.632;2023-05-29T04:59:01;10.70;99.90
39347;DHT22;26262;49.836;6.632;2023-05-29T05:01:26;10.80;99.90
39347;DHT22;26262;49.836;6.632;2023-05-29T05:03:52;11.00;99.90
39347;DHT22;26262;49.836;6.632;2023-05-29T05:06:22;10.90;99.90
39347;DHT22;26262;49.836;6.632;2023-05-29T05:08:47;10.90;99.90
39347;DHT22;26262;49.836;6.632;2023-05-29T05:11:13;10.90;99.90
39347;DHT22;26262;49.836;6.632;2023-05-29T05:13:39;10.90;99.90
39347;DHT22;26262;49.836;6.632;2023-05-29T05:16:05;11.10;99.90
39347;DHT22;26262;49.836;6.632;2023-05-29T05:18:31;11.30;99.90
39347;DHT22;26262;49.836;6.632;2023-05-29T05:20:56;11.40;99.90
39347;DHT22;26262;49.836;6.632;2023-05-29T05:23:22;11.50;99.90
39347;DHT22;26262;49.836;6.632;2023-05-29T05:25:47;11.50;99.90
39347;DHT22;26262;49.836;6.632;2023-05-29T05:28:13;11.60;99.90
39347;DHT22;26262;49.836;6.632;2023-05-29T05:30:38;11.80;99.90
39347;DHT22;26262;49.836;6.632;2023-05-29T05:33:04;11.90;99.90
39347;DHT22;26262;49.836;6.632;2023-05-29T05:35:29;12.10;99.90
39347;DHT22;26262;49.836;6.632;2023-05-29T05:37:55;12.00;99.90
39347;DHT22;26262;49.836;6.632;2023-05-29T05:40:23;12.10;99.90
39347;DHT22;26262;49.836;6.632;2023-05-29T05:42:49;12.30;99.90
39347;DHT22;26262;49.836;6.632;2023-05-29T05:45:14;12.40;99.90
39347;DHT22;26262;49.836;6.632;2023-05-29T05:47:40;12.50;99.90
39347;DHT22;26262;49.836;6.632;2023-05-29T05:50:06;12.50;99.90
39347;DHT22;26262;49.836;6.632;2023-05-29T05:52:32;12.50;99.90
39347;DHT22;26262;49.836;6.632;2023-05-29T05:54:58;12.70;99.90
39347;DHT22;26262;49.836;6.632;2023-05-29T05:57:24;12.90;99.90
39347;DHT22;26262;49.836;6.632;2023-05-29T05:59:51;13.10;99.90
39347;DHT22;26262;49.836;6.632;2023-05-29T06:02:16;13.20;99.90
39347;DHT22;26262;49.836;6.632;2023-05-29T06:04:42;13.50;99.90
39347;DHT22;26262;49.836;6.632;2023-05-29T06:07:08;13.60;99.90
39347;DHT22;26262;49.836;6.632;2023-05-29T06:09:34;13.80;99.90
39347;DHT22;26262;49.836;6.632;2023-05-29T06:12:00;14.00;99.90
39347;DHT22;26262;49.836;6.632;2023-05-29T06:14:26;14.20;99.90
39347;DHT22;26262;49.836;6.632;2023-05-29T06:16:51;14.30;99.90
39347;DHT22;26262;49.836;6.632;2023-05-29T06:19:17;14.40;99.90
39347;DHT22;26262;49.836;6.632;2023-05-29T06:21:43;14.60;99.90
39347;DHT22;26262;49.836;6.632;2023-05-29T06:24:08;14.70;99.90
39347;DHT22;26262;49.836;6.632;2023-05-29T06:26:34;14.80;99.90
39347;DHT22;26262;49.836;6.632;2023-05-29T06:28:59;15.00;99.90
39347;DHT22;26262;49.836;6.632;2023-05-29T06:31:25;15.20;99.90
39347;DHT22;26262;49.836;6.632;2023-05-29T06:33:51;15.30;99.90
39347;DHT22;26262;49.836;6.632;2023-05-29T06:36:16;15.40;99.90
39347;DHT22;26262;49.836;6.632;2023-05-29T06:38:48;15.50;99.90
39347;DHT22;26262;49.836;6.632;2023-05-29T06:41:14;15.60;99.90
39347;DHT22;26262;49.836;6.632;2023-05-29T06:43:40;15.80;99.90
39347;DHT22;26262;49.836;6.632;2023-05-29T06:46:05;15.90;99.90
39347;DHT22;26262;49.836;6.632;2023-05-29T06:48:34;16.00;99.90
39347;DHT22;26262;49.836;6.632;2023-05-29T06:51:00;16.00;99.90
39347;DHT22;26262;49.836;6.632;2023-05-29T06:53:26;16.20;99.90
39347;DHT22;26262;49.836;6.632;2023-05-29T06:55:52;16.30;99.90
39347;DHT22;26262;49.836;6.632;2023-05-29T06:58:18;16.40;99.90
39347;DHT22;26262;49.836;6.632;2023-05-29T07:00:44;16.50;99.90
39347;DHT22;26262;49.836;6.632;2023-05-29T07:03:09;16.70;99.90
39347;DHT22;26262;49.836;6.632;2023-05-29T07:05:35;16.80;99.90
39347;DHT22;26262;49.836;6.632;2023-05-29T07:08:00;16.90;99.90
39347;DHT22;26262;49.836;6.632;2023-05-29T07:10:26;17.00;99.90
39347;DHT22;26262;49.836;6.632;2023-05-29T07:12:51;17.10;99.90
39347;DHT22;26262;49.836;6.632;2023-05-29T07:15:17;17.10;99.90
39347;DHT22;26262;49.836;6.632;2023-05-29T07:17:42;17.30;99.90
39347;DHT22;26262;49.836;6.632;2023-05-29T07:20:08;17.40;99.90
39347;DHT22;26262;49.836;6.632;2023-05-29T07:22:34;17.50;99.90
39347;DHT22;26262;49.836;6.632;2023-05-29T07:25:01;17.60;99.90
39347;DHT22;26262;49.836;6.632;2023-05-29T07:27:27;17.70;99.90
39347;DHT22;26262;49.836;6.632;2023-05-29T07:29:53;17.80;99.90
39347;DHT22;26262;49.836;6.632;2023-05-29T07:32:19;17.90;99.90
39347;DHT22;26262;49.836;6.632;2023-05-29T07:34:44;18.00;99.90
39347;DHT22;26262;49.836;6.632;2023-05-29T07:37:11;18.20;99.90
39347;DHT22;26262;49.836;6.632;2023-05-29T07:39:36;18.30;99.90
39347;DHT22;26262;49.836;6.632;2023-05-29T07:42:02;18.40;99.90
39347;DHT22;26262;49.836;6.632;2023-05-29T07:44:28;18.40;99.90
39347;DHT22;26262;49.836;6.632;2023-05-29T07:46:54;18.50;99.90
39347;DHT22;26262;49.836;6.632;2023-05-29T07:49:20;18.60;99.90
39347;DHT22;26262;49.836;6.632;2023-05-29T07:51:45;18.70;99.90
39347;DHT22;26262;49.836;6.632;2023-05-29T07:54:11;18.80;99.90
39347;DHT22;26262;49.836;6.632;2023-05-29T07:56:37;18.90;99.90
39347;DHT22;26262;49.836;6.632;2023-05-29T07:59:04;19.00;99.90
39347;DHT22;26262;49.836;6.632;2023-05-29T08:01:29;19.10;99.90
39347;DHT22;26262;49.836;6.632;2023-05-29T08:03:55;19.20;99.90
39347;DHT22;26262;49.836;6.632;2023-05-29T08:06:21;19.40;99.90
39347;DHT22;26262;49.836;6.632;2023-05-29T08:08:46;19.50;99.90
39347;DHT22;26262;49.836;6.632;2023-05-29T08:11:13;19.50;99.90
39347;DHT22;26262;49.836;6.632;2023-05-29T08:13:38;19.60;99.90
39347;DHT22;26262;49.836;6.632;2023-05-29T08:16:04;19.70;99.90
39347;DHT22;26262;49.836;6.632;2023-05-29T08:18:31;19.90;99.90
39347;DHT22;26262;49.836;6.632;2023-05-29T08:20:57;19.90;99.90
39347;DHT22;26262;49.836;6.632;2023-05-29T08:23:23;20.00;99.90
39347;DHT22;26262;49.836;6.632;2023-05-29T08:25:48;20.10;99.90
39347;DHT22;26262;49.836;6.632;2023-05-29T08:28:14;20.10;99.90
39347;DHT22;26262;49.836;6.632;2023-05-29T08:30:40;20.20;99.90
39347;DHT22;26262;49.836;6.632;2023-05-29T08:33:06;20.30;99.90
39347;DHT22;26262;49.836;6.632;2023-05-29T08:35:32;20.50;99.90
39347;DHT22;26262;49.836;6.632;2023-05-29T08:37:58;20.70;99.90
39347;DHT22;26262;49.836;6.632;2023-05-29T08:40:23;20.70;99.90
39347;DHT22;26262;49.836;6.632;2023-05-29T08:43:04;20.80;99.90
39347;DHT22;26262;49.836;6.632;2023-05-29T08:45:33;21.00;99.90
39347;DHT22;26262;49.836;6.632;2023-05-29T08:48:00;21.10;99.90
39347;DHT22;26262;49.836;6.632;2023-05-29T08:50:26;21.30;99.90
39347;DHT22;26262;49.836;6.632;2023-05-29T08:52:52;21.40;99.80
39347;DHT22;26262;49.836;6.632;2023-05-29T08:55:18;21.50;99.90
39347;DHT22;26262;49.836;6.632;2023-05-29T08:57:43;21.50;98.60
39347;DHT22;26262;49.836;6.632;2023-05-29T09:00:11;21.60;99.00
39347;DHT22;26262;49.836;6.632;2023-05-29T09:02:43;21.70;99.50
39347;DHT22;26262;49.836;6.632;2023-05-29T09:05:09;21.90;99.70
39347;DHT22;26262;49.836;6.632;2023-05-29T09:07:36;22.00;98.70
39347;DHT22;26262;49.836;6.632;2023-05-29T09:10:13;22.20;97.60
39347;DHT22;26262;49.836;6.632;2023-05-29T09:12:40;22.30;97.40
39347;DHT22;26262;49.836;6.632;2023-05-29T09:15:17;22.40;96.20
39347;DHT22;26262;49.836;6.632;2023-05-29T09:17:44;22.50;97.40
39347;DHT22;26262;49.836;6.632;2023-05-29T09:20:16;22.50;96.10
39347;DHT22;26262;49.836;6.632;2023-05-29T09:22:58;22.50;95.60
39347;DHT22;26262;49.836;6.632;2023-05-29T09:25:26;22.60;95.90
39347;DHT22;26262;49.836;6.632;2023-05-29T09:27:57;22.70;95.80
39347;DHT22;26262;49.836;6.632;2023-05-29T09:30:44;23.00;95.50
39347;DHT22;26262;49.836;6.632;2023-05-29T09:33:13;23.10;95.30
39347;DHT22;26262;49.836;6.632;2023-05-29T09:35:40;23.20;94.80
39347;DHT22;26262;49.836;6.632;2023-05-29T09:38:09;23.40;94.70
39347;DHT22;26262;49.836;6.632;2023-05-29T09:40:37;23.50;94.90
39347;DHT22;26262;49.836;6.632;2023-05-29T09:43:09;23.90;92.50
39347;DHT22;26262;49.836;6.632;2023-05-29T09:45:37;24.00;93.40
39347;DHT22;26262;49.836;6.632;2023-05-29T09:48:04;24.20;92.20
39347;DHT22;26262;49.836;6.632;2023-05-29T09:50:30;24.30;93.60
39347;DHT22;26262;49.836;6.632;2023-05-29T09:52:56;24.50;91.70
39347;DHT22;26262;49.836;6.632;2023-05-29T09:55:27;24.50;92.20
39347;DHT22;26262;49.836;6.632;2023-05-29T09:57:54;24.60;90.80
39347;DHT22;26262;49.836;6.632;2023-05-29T10:00:20;24.70;92.60
39347;DHT22;26262;49.836;6.632;2023-05-29T10:02:48;24.90;92.10
39347;DHT22;26262;49.836;6.632;2023-05-29T10:05:13;25.20;90.90
39347;DHT22;26262;49.836;6.632;2023-05-29T10:07:44;25.50;90.60
39347;DHT22;26262;49.836;6.632;2023-05-29T10:10:13;25.50;90.80
39347;DHT22;26262;49.836;6.632;2023-05-29T10:12:44;25.70;89.10
39347;DHT22;26262;49.836;6.632;2023-05-29T10:15:14;25.70;90.20
39347;DHT22;26262;49.836;6.632;2023-05-29T10:18:00;25.70;90.50
39347;DHT22;26262;49.836;6.632;2023-05-29T10:20:27;26.00;90.00
39347;DHT22;26262;49.836;6.632;2023-05-29T10:22:56;26.00;87.20
39347;DHT22;26262;49.836;6.632;2023-05-29T10:25:22;26.10;85.70
39347;DHT22;26262;49.836;6.632;2023-05-29T10:27:49;26.40;87.30
39347;DHT22;26262;49.836;6.632;2023-05-29T10:30:27;26.60;84.80
39347;DHT22;26262;49.836;6.632;2023-05-29T10:35:52;26.80;84.90
39347;DHT22;26262;49.836;6.632;2023-05-29T10:38:19;26.70;84.20
39347;DHT22;26262;49.836;6.632;2023-05-29T10:40:46;26.90;84.20
39347;DHT22;26262;49.836;6.632;2023-05-29T10:43:30;27.20;81.40
39347;DHT22;26262;49.836;6.632;2023-05-29T10:46:00;27.30;80.40
39347;DHT22;26262;49.836;6.632;2023-05-29T10:50:55;27.20;79.50
39347;DHT22;26262;49.836;6.632;2023-05-29T10:53:26;27.30;81.40
39347;DHT22;26262;49.836;6.632;2023-05-29T10:55:52;27.30;80.70
39347;DHT22;26262;49.836;6.632;2023-05-29T10:58:19;27.50;79.50
39347;DHT22;26262;49.836;6.632;2023-05-29T11:00:46;27.70;78.70
39347;DHT22;26262;49.836;6.632;2023-05-29T11:03:21;27.90;77.00
39347;DHT22;26262;49.836;6.632;2023-05-29T11:06:02;28.10;76.40
39347;DHT22;26262;49.836;6.632;2023-05-29T11:08:34;28.20;73.40
39347;DHT22;26262;49.836;6.632;2023-05-29T11:11:01;28.30;77.30
39347;DHT22;26262;49.836;6.632;2023-05-29T11:13:34;28.50;75.40
39347;DHT22;26262;49.836;6.632;2023-05-29T11:16:10;28.50;72.80
39347;DHT22;26262;49.836;6.632;2023-05-29T11:18:54;28.80;75.70
39347;DHT22;26262;49.836;6.632;2023-05-29T11:21:26;28.90;74.60
39347;DHT22;26262;49.836;6.632;2023-05-29T11:23:55;28.90;72.70
39347;DHT22;26262;49.836;6.632;2023-05-29T11:26:25;28.50;69.50
39347;DHT22;26262;49.836;6.632;2023-05-29T11:28:51;28.40;69.80
39347;DHT22;26262;49.836;6.632;2023-05-29T11:31:18;27.90;70.20
39347;DHT22;26262;49.836;6.632;2023-05-29T11:33:48;28.00;67.70
39347;DHT22;26262;49.836;6.632;2023-05-29T11:36:21;27.80;67.70
39347;DHT22;26262;49.836;6.632;2023-05-29T11:38:47;27.90;65.20
39347;DHT22;26262;49.836;6.632;2023-05-29T11:41:13;28.10;70.10
39347;DHT22;26262;49.836;6.632;2023-05-29T11:43:38;28.50;67.80
39347;DHT22;26262;49.836;6.632;2023-05-29T11:46:19;28.80;67.80
39347;DHT22;26262;49.836;6.632;2023-05-29T11:48:46;29.00;66.20
39347;DHT22;26262;49.836;6.632;2023-05-29T11:51:12;28.40;67.20
39347;DHT22;26262;49.836;6.632;2023-05-29T11:53:40;28.70;67.60
39347;DHT22;26262;49.836;6.632;2023-05-29T11:56:10;28.70;65.40
39347;DHT22;26262;49.836;6.632;2023-05-29T11:58:40;28.70;65.20
39347;DHT22;26262;49.836;6.632;2023-05-29T12:01:07;28.90;66.30
39347;DHT22;26262;49.836;6.632;2023-05-29T12:03:40;29.00;68.50
39347;DHT22;26262;49.836;6.632;2023-05-29T12:06:06;29.20;69.20
39347;DHT22;26262;49.836;6.632;2023-05-29T12:08:33;29.20;66.70
39347;DHT22;26262;49.836;6.632;2023-05-29T12:10:58;29.20;67.80
39347;DHT22;26262;49.836;6.632;2023-05-29T12:13:24;29.40;68.90
39347;DHT22;26262;49.836;6.632;2023-05-29T12:15:53;29.80;65.90
39347;DHT22;26262;49.836;6.632;2023-05-29T12:18:19;29.50;67.60
39347;DHT22;26262;49.836;6.632;2023-05-29T12:20:45;29.70;67.60
39347;DHT22;26262;49.836;6.632;2023-05-29T12:23:10;29.50;62.20
39347;DHT22;26262;49.836;6.632;2023-05-29T12:25:37;28.90;62.40
39347;DHT22;26262;49.836;6.632;2023-05-29T12:28:04;28.90;63.70
39347;DHT22;26262;49.836;6.632;2023-05-29T12:30:30;29.10;65.00
39347;DHT22;26262;49.836;6.632;2023-05-29T12:32:57;29.10;62.90
39347;DHT22;26262;49.836;6.632;2023-05-29T12:35:27;29.50;63.70
39347;DHT22;26262;49.836;6.632;2023-05-29T12:38:01;29.70;63.60
39347;DHT22;26262;49.836;6.632;2023-05-29T12:40:33;29.40;62.00
39347;DHT22;26262;49.836;6.632;2023-05-29T12:43:08;29.50;65.30
39347;DHT22;26262;49.836;6.632;2023-05-29T12:45:36;30.00;62.70
39347;DHT22;26262;49.836;6.632;2023-05-29T12:48:07;29.60;61.40
39347;DHT22;26262;49.836;6.632;2023-05-29T12:50:37;29.50;61.40
39347;DHT22;26262;49.836;6.632;2023-05-29T12:53:11;30.00;61.00
39347;DHT22;26262;49.836;6.632;2023-05-29T12:55:39;29.90;63.20
39347;DHT22;26262;49.836;6.632;2023-05-29T12:58:05;30.20;62.90
39347;DHT22;26262;49.836;6.632;2023-05-29T13:00:31;30.10;61.80
39347;DHT22;26262;49.836;6.632;2023-05-29T13:02:57;29.80;60.80
39347;DHT22;26262;49.836;6.632;2023-05-29T13:05:22;29.70;61.70
39347;DHT22;26262;49.836;6.632;2023-05-29T13:07:49;29.60;63.80
39347;DHT22;26262;49.836;6.632;2023-05-29T13:10:15;29.70;61.80
39347;DHT22;26262;49.836;6.632;2023-05-29T13:12:41;29.70;61.90
39347;DHT22;26262;49.836;6.632;2023-05-29T13:15:09;29.60;64.40
39347;DHT22;26262;49.836;6.632;2023-05-29T13:17:35;29.50;62.90
39347;DHT22;26262;49.836;6.632;2023-05-29T13:20:01;30.00;63.00
39347;DHT22;26262;49.836;6.632;2023-05-29T13:22:26;30.30;62.00
39347;DHT22;26262;49.836;6.632;2023-05-29T13:24:57;30.20;62.80
39347;DHT22;26262;49.836;6.632;2023-05-29T13:27:23;30.30;61.80
39347;DHT22;26262;49.836;6.632;2023-05-29T13:29:49;30.30;61.60
39347;DHT22;26262;49.836;6.632;2023-05-29T13:32:15;30.40;63.60
39347;DHT22;26262;49.836;6.632;2023-05-29T13:34:40;30.50;62.40
39347;DHT22;26262;49.836;6.632;2023-05-29T13:37:06;30.50;63.70
39347;DHT22;26262;49.836;6.632;2023-05-29T13:39:31;30.60;62.60
39347;DHT22;26262;49.836;6.632;2023-05-29T13:41:57;30.60;64.00
39347;DHT22;26262;49.836;6.632;2023-05-29T13:44:22;30.70;65.50
39347;DHT22;26262;49.836;6.632;2023-05-29T13:46:48;30.50;61.20
39347;DHT22;26262;49.836;6.632;2023-05-29T13:49:13;30.60;64.10
39347;DHT22;26262;49.836;6.632;2023-05-29T13:51:39;30.50;62.40
39347;DHT22;26262;49.836;6.632;2023-05-29T13:54:04;30.50;63.20
39347;DHT22;26262;49.836;6.632;2023-05-29T13:56:30;30.40;62.60
39347;DHT22;26262;49.836;6.632;2023-05-29T13:58:57;30.10;62.70
39347;DHT22;26262;49.836;6.632;2023-05-29T14:01:25;29.80;63.90
39347;DHT22;26262;49.836;6.632;2023-05-29T14:03:50;29.90;62.60
39347;DHT22;26262;49.836;6.632;2023-05-29T14:06:16;29.90;63.80
39347;DHT22;26262;49.836;6.632;2023-05-29T14:08:41;30.20;62.20
39347;DHT22;26262;49.836;6.632;2023-05-29T14:11:07;30.10;62.90
39347;DHT22;26262;49.836;6.632;2023-05-29T14:13:32;30.20;62.50
39347;DHT22;26262;49.836;6.632;2023-05-29T14:15:58;30.20;64.20
39347;DHT22;26262;49.836;6.632;2023-05-29T14:18:23;30.10;63.20
39347;DHT22;26262;49.836;6.632;2023-05-29T14:20:49;30.10;63.20
39347;DHT22;26262;49.836;6.632;2023-05-29T14:23:17;30.10;64.20
39347;DHT22;26262;49.836;6.632;2023-05-29T14:25:43;29.70;63.60
39347;DHT22;26262;49.836;6.632;2023-05-29T14:28:08;29.40;65.60
39347;DHT22;26262;49.836;6.632;2023-05-29T14:30:35;29.60;65.60
39347;DHT22;26262;49.836;6.632;2023-05-29T14:33:00;29.40;64.10
39347;DHT22;26262;49.836;6.632;2023-05-29T14:35:26;29.40;65.00
39347;DHT22;26262;49.836;6.632;2023-05-29T14:37:51;29.20;63.20
39347;DHT22;26262;49.836;6.632;2023-05-29T14:40:17;29.00;64.10
39347;DHT22;26262;49.836;6.632;2023-05-29T14:42:43;29.00;65.00
39347;DHT22;26262;49.836;6.632;2023-05-29T14:45:08;29.10;65.10
39347;DHT22;26262;49.836;6.632;2023-05-29T14:47:35;29.40;65.80
39347;DHT22;26262;49.836;6.632;2023-05-29T14:50:01;29.50;65.40
39347;DHT22;26262;49.836;6.632;2023-05-29T14:52:26;29.50;64.30
39347;DHT22;26262;49.836;6.632;2023-05-29T14:54:52;29.30;65.90
39347;DHT22;26262;49.836;6.632;2023-05-29T14:57:17;29.40;65.80
39347;DHT22;26262;49.836;6.632;2023-05-29T14:59:43;29.40;66.90
39347;DHT22;26262;49.836;6.632;2023-05-29T15:02:08;29.60;64.30
39347;DHT22;26262;49.836;6.632;2023-05-29T15:04:35;29.40;65.90
39347;DHT22;26262;49.836;6.632;2023-05-29T15:07:01;29.40;65.60
39347;DHT22;26262;49.836;6.632;2023-05-29T15:09:26;29.40;65.60
39347;DHT22;26262;49.836;6.632;2023-05-29T15:11:52;28.90;66.90
39347;DHT22;26262;49.836;6.632;2023-05-29T15:14:18;28.80;66.90
39347;DHT22;26262;49.836;6.632;2023-05-29T15:16:44;28.80;67.20
39347;DHT22;26262;49.836;6.632;2023-05-29T15:19:10;28.70;67.40
39347;DHT22;26262;49.836;6.632;2023-05-29T15:21:36;28.30;68.00
39347;DHT22;26262;49.836;6.632;2023-05-29T15:24:02;28.30;68.60
39347;DHT22;26262;49.836;6.632;2023-05-29T15:26:27;28.20;67.40
39347;DHT22;26262;49.836;6.632;2023-05-29T15:28:53;28.10;68.20
39347;DHT22;26262;49.836;6.632;2023-05-29T15:31:19;28.30;68.10
39347;DHT22;26262;49.836;6.632;2023-05-29T15:33:48;28.30;68.70
39347;DHT22;26262;49.836;6.632;2023-05-29T15:36:13;28.20;67.40
39347;DHT22;26262;49.836;6.632;2023-05-29T15:38:41;28.20;68.20